createdAt,value
2023-07-03T00:01:12.878Z,100295.28
2023-07-03T00:03:39.890Z,100298.06
2023-07-03T00:06:09.285Z,100295.16
2023-07-03T00:08:39.041Z,100284.38
2023-07-03T00:11:06.837Z,100293.28
2023-07-03T00:13:34.143Z,100283.59
2023-07-03T00:16:05.337Z,100271.16
2023-07-03T00:18:32.458Z,100270.41
2023-07-03T00:20:59.708Z,100282.50
2023-07-03T00:23:27.456Z,100276.66
2023-07-03T00:25:56.551Z,100280.94
2023-07-03T00:28:23.607Z,100272.88
2023-07-03T00:30:50.665Z,100274.91
2023-07-03T00:33:17.606Z,100269.47
2023-07-03T00:35:44.641Z,100274.56
2023-07-03T00:38:11.665Z,100272.00
2023-07-03T00:40:41.112Z,100273.22
2023-07-03T00:43:08.776Z,100266.97
2023-07-03T00:45:39.424Z,100270.88
2023-07-03T00:48:06.829Z,100267.88
2023-07-03T00:50:36.684Z,100264.03
2023-07-03T00:53:06.379Z,100269.53
2023-07-03T00:55:36.036Z,100266.56
2023-07-03T00:58:03.465Z,100276.84
2023-07-03T01:00:46.491Z,100265.50
2023-07-03T01:03:27.804Z,100259.41
2023-07-03T01:05:56.771Z,100270.16
2023-07-03T01:08:28.011Z,100258.91
2023-07-03T01:10:56.088Z,100247.66
2023-07-03T01:13:29.158Z,100246.72
2023-07-03T01:15:57.457Z,100245.53
2023-07-03T01:18:25.065Z,100253.22
2023-07-03T01:21:25.823Z,100247.88
2023-07-03T01:24:12.239Z,100251.28
2023-07-03T01:26:40.131Z,100251.56
2023-07-03T01:29:07.899Z,100245.84
2023-07-03T01:31:37.339Z,100251.25
2023-07-03T01:34:06.165Z,100244.44
2023-07-03T01:36:34.122Z,100243.59
2023-07-03T01:39:03.352Z,100238.13
2023-07-03T01:41:31.922Z,100242.66
2023-07-03T01:44:01.503Z,100239.66
2023-07-03T01:46:28.622Z,100238.88
2023-07-03T01:48:55.829Z,100233.84
2023-07-03T01:51:44.890Z,100237.25
2023-07-03T01:54:33.744Z,100231.75
2023-07-03T01:57:04.178Z,100234.91
2023-07-03T01:59:33.969Z,100234.72
2023-07-03T02:02:08.265Z,100236.94
2023-07-03T02:05:03.926Z,100232.22
2023-07-03T02:07:33.107Z,100229.28
2023-07-03T02:10:01.115Z,100225.41
2023-07-03T02:12:30.903Z,100227.00
2023-07-03T02:15:08.405Z,100225.94
2023-07-03T02:17:35.376Z,100227.97
2023-07-03T02:20:02.325Z,100223.34
2023-07-03T02:22:29.229Z,100223.34
2023-07-03T02:24:56.156Z,100220.50
2023-07-03T02:27:23.138Z,100219.38
2023-07-03T02:29:50.782Z,100226.16
2023-07-03T02:32:20.357Z,100221.66
2023-07-03T02:34:47.432Z,100223.66
2023-07-03T02:37:15.194Z,100218.91
2023-07-03T02:39:42.284Z,100218.69
2023-07-03T02:42:13.840Z,100218.41
2023-07-03T02:44:40.777Z,100214.47
2023-07-03T02:47:07.884Z,100217.16
2023-07-03T02:49:39.626Z,100222.63
2023-07-03T02:52:06.903Z,100222.34
2023-07-03T02:54:38.448Z,100207.00
2023-07-03T02:57:05.667Z,100206.09
2023-07-03T02:59:33.312Z,100214.75
2023-07-03T03:02:00.326Z,100212.75
2023-07-03T03:04:29.612Z,100220.50
2023-07-03T03:06:56.568Z,100215.59
2023-07-03T03:09:24.541Z,100224.38
2023-07-03T03:11:51.566Z,100224.47
2023-07-03T03:14:18.540Z,100212.88
2023-07-03T03:16:45.558Z,100213.66
2023-07-03T03:19:12.629Z,100211.94
2023-07-03T03:21:39.627Z,100206.00
2023-07-03T03:24:09.121Z,100199.03
2023-07-03T03:26:38.397Z,100197.34
2023-07-03T03:29:05.330Z,100192.06
2023-07-03T03:31:32.218Z,100181.44
2023-07-03T03:33:59.308Z,100183.41
2023-07-03T03:36:34.087Z,100178.44
2023-07-03T03:39:01.034Z,100165.03
2023-07-03T03:41:28.013Z,100176.59
2023-07-03T03:43:59.463Z,100192.81
2023-07-03T03:46:26.345Z,100202.44
2023-07-03T03:48:55.874Z,100185.97
2023-07-03T03:51:23.320Z,100189.63
2023-07-03T03:53:52.372Z,100203.63
2023-07-03T03:56:21.718Z,100196.81
2023-07-03T03:58:48.673Z,100198.59
2023-07-03T04:01:18.240Z,100193.84
2023-07-03T04:03:46.716Z,100197.69
2023-07-03T04:06:17.634Z,100187.53
2023-07-03T04:08:45.571Z,100192.16
2023-07-03T04:11:13.029Z,100188.75
2023-07-03T04:13:39.993Z,100191.03
2023-07-03T04:16:09.939Z,100192.78
2023-07-03T04:18:37.268Z,100190.16
2023-07-03T04:21:04.425Z,100198.84
2023-07-03T04:23:33.965Z,100187.25
2023-07-03T04:26:02.118Z,100201.44
2023-07-03T04:28:29.460Z,100193.13
2023-07-03T04:30:56.634Z,100193.25
2023-07-03T04:33:26.198Z,100187.47
2023-07-03T04:35:53.489Z,100194.47
2023-07-03T04:38:25.063Z,100187.38
2023-07-03T04:40:54.732Z,100197.50
2023-07-03T04:43:24.647Z,100215.88
2023-07-03T04:45:54.417Z,100209.47
2023-07-03T04:48:24.536Z,100218.22
2023-07-03T04:50:53.783Z,100215.53
2023-07-03T04:53:22.529Z,100216.78
2023-07-03T04:55:53.317Z,100209.50
2023-07-03T04:58:23.501Z,100218.72
2023-07-03T05:00:54.084Z,100222.69
2023-07-03T05:03:21.290Z,100213.66
2023-07-03T05:05:48.523Z,100212.88
2023-07-03T05:08:16.018Z,100211.56
2023-07-03T05:10:45.523Z,100209.84
2023-07-03T05:13:12.580Z,100206.31
2023-07-03T05:15:39.662Z,100203.56
2023-07-03T05:18:06.862Z,100211.94
2023-07-03T05:20:33.910Z,100220.59
2023-07-03T05:23:03.476Z,100218.94
2023-07-03T05:25:30.482Z,100219.16
2023-07-03T05:27:57.489Z,100222.50
2023-07-03T05:30:24.575Z,100208.13
2023-07-03T05:32:53.682Z,100217.09
2023-07-03T05:35:20.702Z,100219.09
2023-07-03T05:37:47.916Z,100201.25
2023-07-03T05:40:18.315Z,100201.78
2023-07-03T05:42:45.385Z,100206.66
2023-07-03T05:45:15.018Z,100205.84
2023-07-03T05:47:44.240Z,100213.38
2023-07-03T05:50:11.462Z,100220.47
2023-07-03T05:52:41.684Z,100215.81
2023-07-03T05:55:08.841Z,100219.25
2023-07-03T05:57:37.985Z,100231.34
2023-07-03T06:00:14.910Z,100230.75
2023-07-03T06:02:47.769Z,100223.81
2023-07-03T06:05:16.190Z,100233.69
2023-07-03T06:07:43.114Z,100234.47
2023-07-03T06:10:16.261Z,100245.59
2023-07-03T06:12:44.293Z,100239.56
2023-07-03T06:15:12.324Z,100234.31
2023-07-03T06:17:41.651Z,100241.94
2023-07-03T06:20:09.730Z,100250.94
2023-07-03T06:22:42.004Z,100245.88
2023-07-03T06:25:10.397Z,100249.84
2023-07-03T06:27:37.448Z,100258.69
2023-07-03T06:30:05.165Z,100266.44
2023-07-03T06:32:32.149Z,100262.81
2023-07-03T06:35:06.698Z,100261.44
2023-07-03T06:37:39.039Z,100264.94
2023-07-03T06:40:12.725Z,100276.81
2023-07-03T06:42:41.877Z,100271.28
2023-07-03T06:45:09.760Z,100281.34
2023-07-03T06:47:36.699Z,100280.63
2023-07-03T06:50:04.134Z,100278.81
2023-07-03T06:52:31.287Z,100282.09
2023-07-03T06:55:00.734Z,100278.97
2023-07-03T06:57:27.658Z,100282.31
2023-07-03T06:59:54.606Z,100288.41
2023-07-03T07:02:21.749Z,100284.81
2023-07-03T07:04:49.096Z,100297.91
2023-07-03T07:07:18.284Z,100286.44
2023-07-03T07:09:45.202Z,100288.13
2023-07-03T07:12:12.137Z,100302.09
2023-07-03T07:14:39.150Z,100292.53
2023-07-03T07:17:06.179Z,100300.44
2023-07-03T07:19:33.246Z,100293.59
2023-07-03T07:22:00.161Z,100298.44
2023-07-03T07:24:28.855Z,100292.53
2023-07-03T07:26:56.309Z,100288.56
2023-07-03T07:29:26.567Z,100292.84
2023-07-03T07:31:58.312Z,100287.25
2023-07-03T07:34:30.495Z,100290.13
2023-07-03T07:37:00.050Z,100292.44
2023-07-03T07:39:29.448Z,100285.97
2023-07-03T07:41:57.522Z,100301.88
2023-07-03T07:44:28.129Z,100297.16
2023-07-03T07:46:55.226Z,100292.34
2023-07-03T07:49:29.239Z,100295.50
2023-07-03T07:51:58.197Z,100285.63
2023-07-03T07:54:30.760Z,100300.81
2023-07-03T07:56:57.921Z,100290.31
2023-07-03T07:59:28.253Z,100295.44
2023-07-03T08:01:59.886Z,100294.53
2023-07-03T08:04:27.680Z,100297.28
2023-07-03T08:06:57.228Z,100298.19
2023-07-03T08:09:24.741Z,100299.00
2023-07-03T08:11:51.650Z,100293.13
2023-07-03T08:14:20.827Z,100298.06
2023-07-03T08:16:48.158Z,100307.50
2023-07-03T08:19:15.400Z,100293.63
2023-07-03T08:21:42.410Z,100301.47
2023-07-03T08:24:11.687Z,100302.06
2023-07-03T08:26:42.858Z,100294.50
2023-07-03T08:29:09.944Z,100299.63
2023-07-03T08:31:37.107Z,100311.59
2023-07-03T08:34:04.237Z,100308.50
2023-07-03T08:39:06.658Z,100307.50
2023-07-03T08:41:51.158Z,100313.94
2023-07-03T08:44:18.168Z,100310.75
2023-07-03T08:47:01.937Z,100315.16
2023-07-03T08:49:40.117Z,100304.75
2023-07-03T08:52:08.482Z,100308.34
2023-07-03T08:54:42.097Z,100312.78
2023-07-03T08:57:12.339Z,100297.72
2023-07-03T08:59:39.763Z,100310.56
2023-07-03T09:02:39.384Z,100307.41
2023-07-03T09:05:31.879Z,100299.06
2023-07-03T09:08:04.677Z,100305.22
2023-07-03T09:10:44.022Z,100296.72
2023-07-03T09:13:27.888Z,100294.44
2023-07-03T09:16:24.746Z,100300.47
2023-07-03T09:19:07.451Z,100303.41
2023-07-03T09:21:36.934Z,100285.19
2023-07-03T09:24:22.535Z,100291.59
2023-07-03T09:27:25.029Z,100294.56
2023-07-03T09:29:55.070Z,100291.25
2023-07-03T09:32:31.325Z,100295.47
2023-07-03T09:35:11.778Z,100302.09
2023-07-03T09:37:46.091Z,100291.38
2023-07-03T09:40:28.073Z,100292.38
2023-07-03T09:42:55.248Z,100295.38
2023-07-03T09:45:34.741Z,100310.44
2023-07-03T09:48:05.351Z,100312.00
2023-07-03T09:50:45.625Z,100314.50
2023-07-03T09:53:32.012Z,100314.19
2023-07-03T09:56:04.737Z,100311.41
2023-07-03T09:58:34.257Z,100323.91
2023-07-03T10:01:02.032Z,100315.22
2023-07-03T10:03:34.300Z,100322.03
2023-07-03T10:11:42.049Z,100335.50
2023-07-03T10:14:16.824Z,100335.47
2023-07-03T10:16:47.282Z,100338.47
2023-07-03T10:19:15.664Z,100341.94
2023-07-03T10:21:50.463Z,100320.34
2023-07-03T10:24:18.089Z,100331.25
2023-07-03T10:26:58.706Z,100337.97
2023-07-03T10:29:33.993Z,100342.84
2023-07-03T10:32:06.631Z,100344.56
2023-07-03T10:34:48.869Z,100340.22
2023-07-03T10:37:20.248Z,100332.53
2023-07-03T10:40:11.551Z,100331.97
2023-07-03T10:42:48.600Z,100336.50
2023-07-03T10:45:19.032Z,100327.13
2023-07-03T10:48:00.225Z,100336.25
2023-07-03T10:51:04.274Z,100342.28
2023-07-03T10:53:46.221Z,100359.09
2023-07-03T10:56:26.194Z,100372.47
2023-07-03T10:59:06.190Z,100372.97
2023-07-03T11:02:38.901Z,100375.22
2023-07-03T11:05:35.412Z,100387.72
2023-07-03T11:08:26.016Z,100374.78
2023-07-03T11:11:15.054Z,100382.59
2023-07-03T11:14:03.420Z,100372.69
2023-07-03T11:16:50.365Z,100372.69
2023-07-03T11:25:10.251Z,100376.31
2023-07-03T11:28:08.839Z,100387.38
2023-07-03T11:30:36.994Z,100374.81
2023-07-03T11:33:07.311Z,100379.00
2023-07-03T11:40:59.847Z,100377.19
2023-07-03T11:43:33.515Z,100385.69
2023-07-03T11:46:00.395Z,100408.13
2023-07-03T11:48:50.871Z,100424.44
2023-07-03T11:51:35.820Z,100430.28
2023-07-03T11:54:25.370Z,100427.31
2023-07-03T11:57:00.874Z,100409.84
2023-07-03T11:59:33.194Z,100406.09
2023-07-03T12:02:12.651Z,100417.97
2023-07-03T12:04:49.077Z,100412.56
2023-07-03T12:07:19.838Z,100410.91
2023-07-03T12:09:48.180Z,100407.63
2023-07-03T12:12:25.402Z,100411.91
2023-07-03T12:14:58.455Z,100407.63
2023-07-03T12:17:37.305Z,100413.66
2023-07-03T12:20:20.649Z,100422.19
2023-07-03T12:22:52.697Z,100416.84
2023-07-03T12:25:30.672Z,100425.03
2023-07-03T12:28:12.467Z,100442.31
2023-07-03T12:30:39.818Z,100444.91
2023-07-03T12:33:07.506Z,100448.13
2023-07-03T12:35:37.991Z,100458.31
2023-07-03T12:38:14.683Z,100473.53
2023-07-03T12:40:46.294Z,100472.81
2023-07-03T12:43:18.997Z,100473.19
2023-07-03T12:45:54.817Z,100486.22
2023-07-03T12:48:23.819Z,100473.06
2023-07-03T12:50:57.602Z,100465.34
2023-07-03T12:53:30.878Z,100457.44
2023-07-03T12:56:08.092Z,100463.25
2023-07-03T12:58:38.808Z,100455.94
2023-07-03T13:01:08.213Z,100461.84
2023-07-03T13:03:41.416Z,100456.09
2023-07-03T13:06:16.924Z,100457.75
2023-07-03T13:08:48.797Z,100458.06
2023-07-03T13:11:15.738Z,100449.44
2023-07-03T13:13:42.800Z,100454.97
2023-07-03T13:16:19.095Z,100446.34
2023-07-03T13:19:07.463Z,100449.84
2023-07-03T13:21:37.705Z,100451.09
2023-07-03T13:24:15.755Z,100453.59
2023-07-03T13:26:52.133Z,100463.34
2023-07-03T13:29:30.776Z,100466.19
2023-07-03T13:32:20.786Z,100469.69
2023-07-03T13:35:08.687Z,100468.72
2023-07-03T13:37:37.285Z,100466.63
2023-07-03T13:40:05.179Z,100466.94
2023-07-03T13:42:37.200Z,100459.44
2023-07-03T13:45:06.726Z,100450.81
2023-07-03T13:47:33.837Z,100447.03
2023-07-03T13:50:05.320Z,100441.75
2023-07-03T13:52:32.262Z,100440.97
2023-07-03T13:55:01.403Z,100442.19
2023-07-03T13:57:28.382Z,100454.72
2023-07-03T13:59:55.417Z,100456.47
2023-07-03T14:02:34.686Z,100458.66
2023-07-03T14:05:10.189Z,100454.16
2023-07-03T14:07:37.133Z,100448.34
2023-07-03T14:10:05.844Z,100446.22
2023-07-03T14:12:32.825Z,100448.91
2023-07-03T14:15:28.369Z,100451.59
2023-07-03T14:17:55.708Z,100454.66
2023-07-03T14:20:24.862Z,100454.66
2023-07-03T14:22:51.854Z,100459.91
2023-07-03T14:25:19.441Z,100454.91
2023-07-03T14:27:48.853Z,100455.03
2023-07-03T14:30:15.945Z,100462.91
2023-07-03T14:32:53.188Z,100461.91
2023-07-03T14:35:23.535Z,100460.63
2023-07-03T14:37:53.748Z,100458.38
2023-07-03T14:40:23.389Z,100455.66
2023-07-03T14:42:50.561Z,100468.09
2023-07-03T14:45:17.982Z,100461.63
2023-07-03T14:47:45.213Z,100462.94
2023-07-03T14:50:13.495Z,100460.72
2023-07-03T14:52:43.370Z,100456.22
2023-07-03T14:55:17.690Z,100455.13
2023-07-03T14:57:46.677Z,100463.88
2023-07-03T15:00:17.255Z,100460.03
2023-07-03T15:02:47.153Z,100455.22
2023-07-03T15:05:14.193Z,100447.47
2023-07-03T15:07:42.243Z,100452.56
2023-07-03T15:10:13.964Z,100449.16
2023-07-03T15:12:41.058Z,100454.91
2023-07-03T15:15:12.103Z,100443.63
2023-07-03T15:17:41.716Z,100445.00
2023-07-03T15:20:09.573Z,100446.28
2023-07-03T15:22:39.091Z,100448.47
2023-07-03T15:25:06.361Z,100442.94
2023-07-03T15:27:34.379Z,100447.31
2023-07-03T15:30:03.757Z,100444.31
2023-07-03T15:32:30.866Z,100460.97
2023-07-03T15:34:57.969Z,100450.91
2023-07-03T15:37:24.910Z,100453.31
2023-07-03T15:39:51.952Z,100456.41
2023-07-03T15:42:18.926Z,100463.22
2023-07-03T15:44:57.279Z,100447.56
2023-07-03T15:47:24.815Z,100458.31
2023-07-03T15:49:58.155Z,100465.03
2023-07-03T15:52:27.914Z,100465.63
2023-07-03T15:54:54.993Z,100453.84
2023-07-03T15:57:24.701Z,100458.03
2023-07-03T15:59:53.838Z,100461.13
2023-07-03T16:02:20.822Z,100464.38
2023-07-03T16:04:47.981Z,100468.91
2023-07-03T16:07:17.213Z,100475.03
2023-07-03T16:09:44.241Z,100466.69
2023-07-03T16:12:11.198Z,100480.91
2023-07-03T16:14:38.255Z,100479.66
2023-07-03T16:17:05.407Z,100475.06
2023-07-03T16:19:32.375Z,100484.81
2023-07-03T16:21:59.273Z,100474.47
2023-07-03T16:24:28.709Z,100477.13
2023-07-03T16:26:55.825Z,100479.16
2023-07-03T16:29:22.811Z,100480.22
2023-07-03T16:31:49.864Z,100481.56
2023-07-03T16:34:17.132Z,100475.28
2023-07-03T16:36:46.363Z,100467.53
2023-07-03T16:39:15.420Z,100461.56
2023-07-03T16:41:43.040Z,100474.75
2023-07-03T16:44:10.062Z,100477.13
2023-07-03T16:46:39.834Z,100477.66
2023-07-03T16:49:10.292Z,100477.09
2023-07-03T16:51:37.213Z,100476.75
2023-07-03T16:54:07.031Z,100477.25
2023-07-03T16:56:34.615Z,100480.13
2023-07-03T16:59:02.311Z,100479.38
2023-07-03T17:01:31.732Z,100485.38
2023-07-03T17:03:58.941Z,100480.25
2023-07-03T17:06:34.045Z,100492.81
2023-07-03T17:09:02.694Z,100498.31
2023-07-03T17:11:31.997Z,100487.03
2023-07-03T17:14:03.789Z,100482.69
2023-07-03T17:16:31.081Z,100498.09
2023-07-03T17:18:58.286Z,100493.31
2023-07-03T17:21:28.397Z,100484.41
2023-07-03T17:24:04.444Z,100494.38
2023-07-03T17:26:35.504Z,100487.56
2023-07-03T17:29:05.717Z,100481.88
2023-07-03T17:31:35.414Z,100487.75
2023-07-03T17:34:02.877Z,100480.91
2023-07-03T17:36:30.031Z,100483.09
2023-07-03T17:38:57.036Z,100486.31
2023-07-03T17:41:28.618Z,100490.63
2023-07-03T17:43:58.721Z,100483.44
2023-07-03T17:46:25.698Z,100484.19
2023-07-03T17:48:52.641Z,100483.81
2023-07-03T17:51:19.915Z,100480.53
2023-07-03T17:53:48.466Z,100479.75
2023-07-03T17:56:21.161Z,100488.97
2023-07-03T17:58:48.787Z,100481.28
2023-07-03T18:01:18.242Z,100478.78
2023-07-03T18:03:50.172Z,100476.56
2023-07-03T18:06:19.853Z,100475.97
2023-07-03T18:08:46.828Z,100476.31
2023-07-03T18:11:16.095Z,100474.56
2023-07-03T18:13:47.638Z,100480.16
2023-07-03T18:16:14.617Z,100470.88
2023-07-03T18:18:41.556Z,100469.84
2023-07-03T18:21:11.590Z,100470.16
2023-07-03T18:23:41.564Z,100474.34
2023-07-03T18:26:10.807Z,100479.84
2023-07-03T18:28:39.836Z,100468.94
2023-07-03T18:31:08.994Z,100463.50
2023-07-03T18:33:35.936Z,100471.53
2023-07-03T18:36:02.961Z,100479.78
2023-07-03T18:38:31.312Z,100469.38
2023-07-03T18:41:04.603Z,100468.69
2023-07-03T18:43:31.982Z,100461.38
2023-07-03T18:46:01.940Z,100467.66
2023-07-03T18:48:28.995Z,100453.50
2023-07-03T18:51:01.317Z,100460.00
2023-07-03T18:53:28.267Z,100455.09
2023-07-03T18:55:55.202Z,100458.06
2023-07-03T18:58:22.166Z,100455.19
2023-07-03T19:00:53.633Z,100454.25
2023-07-03T19:03:23.820Z,100457.28
2023-07-03T19:05:57.414Z,100457.28
2023-07-03T19:08:26.598Z,100467.50
2023-07-03T19:10:54.581Z,100461.22
2023-07-03T19:13:24.075Z,100465.97
2023-07-03T19:15:55.572Z,100464.59
2023-07-03T19:18:25.407Z,100459.03
2023-07-03T19:20:55.134Z,100459.25
2023-07-03T19:23:24.279Z,100457.81
2023-07-03T19:26:00.187Z,100461.63
2023-07-03T19:28:29.876Z,100455.28
2023-07-03T19:31:02.282Z,100462.31
2023-07-03T19:33:30.562Z,100454.75
2023-07-03T19:36:00.845Z,100464.28
2023-07-03T19:38:30.494Z,100458.78
2023-07-03T19:40:57.707Z,100453.56
2023-07-03T19:43:26.712Z,100459.63
2023-07-03T19:45:55.813Z,100460.47
2023-07-03T19:48:25.373Z,100458.31
2023-07-03T19:50:52.580Z,100463.38
2023-07-03T19:53:19.574Z,100451.22
2023-07-03T19:55:49.707Z,100459.72
2023-07-03T19:58:17.625Z,100448.81
2023-07-03T20:01:02.248Z,100438.53
2023-07-03T20:03:29.810Z,100445.00
2023-07-03T20:05:57.462Z,100442.03
2023-07-03T20:08:27.233Z,100441.31
2023-07-03T20:11:03.894Z,100442.22
2023-07-03T20:13:35.667Z,100446.06
2023-07-03T20:16:04.399Z,100439.94
2023-07-03T20:18:33.004Z,100446.19
2023-07-03T20:21:05.061Z,100440.09
2023-07-03T20:23:33.077Z,100433.94
2023-07-03T20:26:00.084Z,100429.63
2023-07-03T20:28:29.695Z,100423.59
2023-07-03T20:30:57.010Z,100426.44
2023-07-03T20:33:26.417Z,100430.72
2023-07-03T20:36:03.392Z,100416.72
2023-07-03T20:38:33.684Z,100410.22
2023-07-03T20:41:07.439Z,100419.31
2023-07-03T20:43:36.771Z,100409.97
2023-07-03T20:46:10.973Z,100406.84
2023-07-03T20:48:45.351Z,100406.03
2023-07-03T20:51:13.476Z,100408.97
2023-07-03T20:53:59.660Z,100402.13
2023-07-03T20:56:35.209Z,100407.41
2023-07-03T20:59:03.156Z,100408.19
2023-07-03T21:01:36.568Z,100407.81
2023-07-03T21:04:10.171Z,100401.44
2023-07-03T21:06:38.910Z,100397.50
2023-07-03T21:09:07.254Z,100411.56
2023-07-03T21:11:40.457Z,100396.59
2023-07-03T21:14:12.121Z,100393.88
2023-07-03T21:16:44.849Z,100395.16
2023-07-03T21:19:13.931Z,100401.66
2023-07-03T21:21:43.433Z,100405.25
2023-07-03T21:24:15.525Z,100400.59
2023-07-03T21:26:42.494Z,100389.91
2023-07-03T21:29:11.715Z,100393.31
2023-07-03T21:31:39.926Z,100392.28
2023-07-03T21:34:13.202Z,100382.59
2023-07-03T21:36:40.699Z,100387.91
2023-07-03T21:39:13.949Z,100384.97
2023-07-03T21:41:43.092Z,100382.44
2023-07-03T21:44:16.955Z,100377.19
2023-07-03T21:46:44.817Z,100379.50
2023-07-03T21:49:14.991Z,100372.34
2023-07-03T21:51:42.163Z,100359.50
2023-07-03T21:54:09.198Z,100360.34
2023-07-03T21:56:37.962Z,100354.06
2023-07-03T21:59:05.495Z,100357.44
2023-07-03T22:01:38.909Z,100357.84
2023-07-03T22:04:08.707Z,100348.59
2023-07-03T22:06:36.138Z,100345.22
2023-07-03T22:09:05.559Z,100342.88
2023-07-03T22:11:33.588Z,100334.66
2023-07-03T22:14:03.990Z,100332.88
2023-07-03T22:16:31.201Z,100330.69
2023-07-03T22:19:00.338Z,100326.91
2023-07-03T22:21:30.656Z,100330.06
2023-07-03T22:23:58.664Z,100317.91
2023-07-03T22:26:27.843Z,100320.38
2023-07-03T22:28:54.830Z,100314.97
2023-07-03T22:31:22.008Z,100322.06
2023-07-03T22:33:49.021Z,100316.63
2023-07-03T22:36:15.961Z,100315.59
2023-07-03T22:38:45.658Z,100303.19
2023-07-03T22:41:15.878Z,100303.19
2023-07-03T22:43:46.419Z,100300.63
2023-07-03T22:46:13.469Z,100305.91
2023-07-03T22:48:43.019Z,100306.75
2023-07-03T22:51:16.451Z,100301.94
2023-07-03T22:53:43.488Z,100297.09
2023-07-03T22:56:10.473Z,100290.16
2023-07-03T22:58:39.891Z,100284.44
2023-07-03T23:01:14.586Z,100277.44
2023-07-03T23:03:44.573Z,100279.84
2023-07-03T23:06:11.586Z,100276.69
2023-07-03T23:08:43.448Z,100273.09
2023-07-03T23:11:15.204Z,100279.81
2023-07-03T23:13:42.317Z,100293.03
2023-07-03T23:16:10.465Z,100302.84
2023-07-03T23:18:40.938Z,100301.59
2023-07-03T23:21:14.191Z,100307.59
2023-07-03T23:23:41.664Z,100312.25
2023-07-03T23:26:13.666Z,100331.34
2023-07-03T23:28:48.849Z,100340.78
2023-07-03T23:31:18.401Z,100340.44
2023-07-03T23:33:51.502Z,100340.09
2023-07-03T23:36:21.431Z,100345.53
2023-07-03T23:38:50.350Z,100353.44
2023-07-03T23:41:18.008Z,100361.94
2023-07-03T23:43:45.522Z,100371.91
2023-07-03T23:46:13.157Z,100366.84
2023-07-03T23:48:43.094Z,100377.97
2023-07-03T23:51:11.990Z,100393.56
2023-07-03T23:53:46.171Z,100392.53
2023-07-03T23:56:18.824Z,100399.06
2023-07-03T23:58:47.369Z,100394.88
